sensor_id;sensor_type;location;lat;lon;timestamp;pressure;altitude;pressure_sealevel;temperature;humidity
23318;BME280;11831;55.918;37.746;2023-02-18T00:01:28;99374.28;;;-5.07;0.00
23318;BME280;11831;55.918;37.746;2023-02-18T00:04:13;99366.03;;;-4.22;0.00
23318;BME280;11831;55.918;37.746;2023-02-18T00:06:40;99364.88;;;-4.48;0.00
23318;BME280;11831;55.918;37.746;2023-02-18T00:09:06;99372.50;;;-5.06;0.00
23318;BME280;11831;55.918;37.746;2023-02-18T00:11:35;99375.94;;;-5.06;0.00
23318;BME280;11831;55.918;37.746;2023-02-18T00:14:05;99360.37;;;-5.17;0.00
23318;BME280;11831;55.918;37.746;2023-02-18T00:16:31;99362.31;;;-5.19;0.00
23318;BME280;11831;55.918;37.746;2023-02-18T00:19:00;99353.41;;;-5.16;0.00
23318;BME280;11831;55.918;37.746;2023-02-18T00:21:28;99360.44;;;-5.07;0.00
23318;BME280;11831;55.918;37.746;2023-02-18T00:23:55;99357.81;;;-5.07;0.00
23318;BME280;11831;55.918;37.746;2023-02-18T00:26:21;99367.06;;;-5.24;0.00
23318;BME280;11831;55.918;37.746;2023-02-18T00:29:06;99351.91;;;-5.40;0.00
23318;BME280;11831;55.918;37.746;2023-02-18T00:31:34;99355.75;;;-5.34;0.00
23318;BME280;11831;55.918;37.746;2023-02-18T00:36:47;99339.94;;;-5.42;0.00
23318;BME280;11831;55.918;37.746;2023-02-18T00:39:14;99332.03;;;-5.31;0.00
23318;BME280;11831;55.918;37.746;2023-02-18T00:41:41;99330.87;;;-5.17;0.00
23318;BME280;11831;55.918;37.746;2023-02-18T00:44:08;99334.91;;;-5.04;0.00
23318;BME280;11831;55.918;37.746;2023-02-18T00:46:35;99330.78;;;-5.06;0.00
23318;BME280;11831;55.918;37.746;2023-02-18T00:49:03;99336.69;;;-5.35;0.00
23318;BME280;11831;55.918;37.746;2023-02-18T00:51:30;99328.66;;;-5.22;0.00
23318;BME280;11831;55.918;37.746;2023-02-18T00:53:56;99328.09;;;-5.25;0.00
23318;BME280;11831;55.918;37.746;2023-02-18T00:56:23;99319.22;;;-4.73;0.00
23318;BME280;11831;55.918;37.746;2023-02-18T00:58:51;99320.81;;;-4.91;0.00
23318;BME280;11831;55.918;37.746;2023-02-18T01:01:21;99317.13;;;-4.89;0.00
23318;BME280;11831;55.918;37.746;2023-02-18T01:03:47;99311.44;;;-5.04;0.00
23318;BME280;11831;55.918;37.746;2023-02-18T01:06:14;99303.78;;;-4.95;0.00
23318;BME280;11831;55.918;37.746;2023-02-18T01:08:41;99298.97;;;-4.90;0.00
23318;BME280;11831;55.918;37.746;2023-02-18T01:11:10;99301.44;;;-4.49;0.00
23318;BME280;11831;55.918;37.746;2023-02-18T01:13:37;99289.75;;;-5.04;0.00
23318;BME280;11831;55.918;37.746;2023-02-18T01:16:05;99284.75;;;-4.77;0.00
23318;BME280;11831;55.918;37.746;2023-02-18T01:18:32;99276.25;;;-4.79;0.00
23318;BME280;11831;55.918;37.746;2023-02-18T01:20:58;99278.88;;;-4.59;0.00
23318;BME280;11831;55.918;37.746;2023-02-18T01:23:25;99269.97;;;-4.38;0.00
23318;BME280;11831;55.918;37.746;2023-02-18T01:25:52;99261.84;;;-4.34;0.00
23318;BME280;11831;55.918;37.746;2023-02-18T01:28:19;99256.75;;;-4.65;0.00
23318;BME280;11831;55.918;37.746;2023-02-18T01:30:46;99254.06;;;-5.04;0.00
23318;BME280;11831;55.918;37.746;2023-02-18T01:33:13;99244.38;;;-4.82;0.00
23318;BME280;11831;55.918;37.746;2023-02-18T01:35:39;99241.41;;;-4.58;0.00
23318;BME280;11831;55.918;37.746;2023-02-18T01:38:24;99235.12;;;-5.06;0.00
23318;BME280;11831;55.918;37.746;2023-02-18T01:41:09;99241.22;;;-4.86;0.00
23318;BME280;11831;55.918;37.746;2023-02-18T01:46:40;99223.75;;;-5.05;0.00
23318;BME280;11831;55.918;37.746;2023-02-18T01:49:07;99224.56;;;-4.94;0.00
23318;BME280;11831;55.918;37.746;2023-02-18T01:52:00;99213.50;;;-4.87;0.00
23318;BME280;11831;55.918;37.746;2023-02-18T01:54:32;99220.09;;;-4.83;0.00
23318;BME280;11831;55.918;37.746;2023-02-18T01:57:00;99221.28;;;-4.96;0.00
23318;BME280;11831;55.918;37.746;2023-02-18T01:59:36;99215.09;;;-5.15;0.00
23318;BME280;11831;55.918;37.746;2023-02-18T02:02:03;99212.69;;;-5.37;0.00
23318;BME280;11831;55.918;37.746;2023-02-18T02:04:32;99205.75;;;-5.17;0.00
23318;BME280;11831;55.918;37.746;2023-02-18T02:06:59;99210.69;;;-5.14;0.00
23318;BME280;11831;55.918;37.746;2023-02-18T02:09:26;99200.28;;;-5.05;0.00
23318;BME280;11831;55.918;37.746;2023-02-18T02:43:17;99167.66;;;-4.80;0.00
23318;BME280;11831;55.918;37.746;2023-02-18T02:53:25;99154.56;;;-4.60;0.00
23318;BME280;11831;55.918;37.746;2023-02-18T02:56:14;99148.63;;;-4.33;0.00
23318;BME280;11831;55.918;37.746;2023-02-18T03:16:00;99137.03;;;-4.58;0.00
23318;BME280;11831;55.918;37.746;2023-02-18T03:18:33;99125.47;;;-3.99;0.00
23318;BME280;11831;55.918;37.746;2023-02-18T03:24:23;99120.25;;;-4.65;0.00
23318;BME280;11831;55.918;37.746;2023-02-18T03:26:56;99111.06;;;-4.70;0.00
23318;BME280;11831;55.918;37.746;2023-02-18T03:29:24;99097.78;;;-4.20;0.00
23318;BME280;11831;55.918;37.746;2023-02-18T03:31:56;99106.41;;;-5.05;0.00
23318;BME280;11831;55.918;37.746;2023-02-18T03:34:31;99091.44;;;-4.83;0.00
23318;BME280;11831;55.918;37.746;2023-02-18T03:37:00;99087.75;;;-5.00;0.00
23318;BME280;11831;55.918;37.746;2023-02-18T03:39:29;99082.56;;;-4.34;0.00
23318;BME280;11831;55.918;37.746;2023-02-18T03:41:56;99086.19;;;-4.64;0.00
23318;BME280;11831;55.918;37.746;2023-02-18T03:44:23;99077.03;;;-5.36;0.00
23318;BME280;11831;55.918;37.746;2023-02-18T03:46:51;99073.88;;;-4.81;0.00
23318;BME280;11831;55.918;37.746;2023-02-18T03:52:03;99068.78;;;-5.31;0.00
23318;BME280;11831;55.918;37.746;2023-02-18T03:54:48;99073.88;;;-4.81;0.00
23318;BME280;11831;55.918;37.746;2023-02-18T03:57:14;99039.25;;;-5.80;0.00
23318;BME280;11831;55.918;37.746;2023-02-18T03:59:59;99067.78;;;-6.18;0.00
23318;BME280;11831;55.918;37.746;2023-02-18T04:02:26;99050.06;;;-6.34;0.00
23318;BME280;11831;55.918;37.746;2023-02-18T04:04:52;99039.69;;;-6.24;0.00
23318;BME280;11831;55.918;37.746;2023-02-18T04:07:19;99029.66;;;-5.99;0.00
23318;BME280;11831;55.918;37.746;2023-02-18T04:09:45;99041.72;;;-6.28;0.00
23318;BME280;11831;55.918;37.746;2023-02-18T04:12:11;99038.72;;;-6.54;0.00
23318;BME280;11831;55.918;37.746;2023-02-18T04:14:38;99033.59;;;-6.04;0.00
23318;BME280;11831;55.918;37.746;2023-02-18T04:17:04;99038.84;;;-5.95;0.00
23318;BME280;11831;55.918;37.746;2023-02-18T04:22:34;99034.19;;;-5.81;0.00
23318;BME280;11831;55.918;37.746;2023-02-18T04:27:44;99012.28;;;-6.59;0.00
23318;BME280;11831;55.918;37.746;2023-02-18T04:30:12;99016.78;;;-6.31;0.00
23318;BME280;11831;55.918;37.746;2023-02-18T04:32:38;99019.09;;;-5.97;0.00
23318;BME280;11831;55.918;37.746;2023-02-18T04:35:05;99016.28;;;-6.15;0.00
23318;BME280;11831;55.918;37.746;2023-02-18T04:37:32;99012.66;;;-6.03;0.00
23318;BME280;11831;55.918;37.746;2023-02-18T04:39:59;99008.84;;;-5.79;0.00
23318;BME280;11831;55.918;37.746;2023-02-18T04:42:25;99001.13;;;-6.10;0.00
23318;BME280;11831;55.918;37.746;2023-02-18T04:44:51;99007.03;;;-6.08;0.00
23318;BME280;11831;55.918;37.746;2023-02-18T04:47:18;98991.09;;;-6.14;0.00
23318;BME280;11831;55.918;37.746;2023-02-18T04:49:44;98978.06;;;-6.24;0.00
23318;BME280;11831;55.918;37.746;2023-02-18T04:52:30;98994.69;;;-5.86;0.00
23318;BME280;11831;55.918;37.746;2023-02-18T04:54:56;98983.16;;;-6.13;0.00
23318;BME280;11831;55.918;37.746;2023-02-18T04:57:22;98983.16;;;-5.84;0.00
23318;BME280;11831;55.918;37.746;2023-02-18T05:00:06;98972.22;;;-6.07;0.00
23318;BME280;11831;55.918;37.746;2023-02-18T05:02:33;98974.28;;;-5.52;0.00
23318;BME280;11831;55.918;37.746;2023-02-18T05:04:59;98965.37;;;-5.59;0.00
23318;BME280;11831;55.918;37.746;2023-02-18T05:07:26;98957.97;;;-5.54;0.00
23318;BME280;11831;55.918;37.746;2023-02-18T05:09:52;98960.19;;;-5.50;0.00
23318;BME280;11831;55.918;37.746;2023-02-18T05:12:19;98958.53;;;-6.09;0.00
23318;BME280;11831;55.918;37.746;2023-02-18T05:14:45;98951.38;;;-5.29;0.00
23318;BME280;11831;55.918;37.746;2023-02-18T05:17:12;98957.63;;;-4.93;0.00
23318;BME280;11831;55.918;37.746;2023-02-18T05:19:38;98952.59;;;-5.24;0.00
23318;BME280;11831;55.918;37.746;2023-02-18T05:22:42;98951.66;;;-5.33;0.00
23318;BME280;11831;55.918;37.746;2023-02-18T05:25:08;98949.34;;;-5.36;0.00
23318;BME280;11831;55.918;37.746;2023-02-18T05:28:11;98949.19;;;-5.15;0.00
23318;BME280;11831;55.918;37.746;2023-02-18T05:30:38;98947.56;;;-5.64;0.00
23318;BME280;11831;55.918;37.746;2023-02-18T05:33:04;98942.41;;;-4.88;0.00
23318;BME280;11831;55.918;37.746;2023-02-18T05:35:31;98937.91;;;-4.59;0.00
23318;BME280;11831;55.918;37.746;2023-02-18T05:37:57;98925.00;;;-5.07;0.00
23318;BME280;11831;55.918;37.746;2023-02-18T05:40:24;98928.16;;;-5.04;0.00
23318;BME280;11831;55.918;37.746;2023-02-18T05:42:50;98929.16;;;-4.77;0.00
23318;BME280;11831;55.918;37.746;2023-02-18T05:45:35;98927.13;;;-5.49;0.00
23318;BME280;11831;55.918;37.746;2023-02-18T05:48:01;98921.63;;;-5.37;0.00
23318;BME280;11831;55.918;37.746;2023-02-18T05:50:28;98904.47;;;-5.29;0.00
23318;BME280;11831;55.918;37.746;2023-02-18T05:53:13;98912.63;;;-5.90;0.00
23318;BME280;11831;55.918;37.746;2023-02-18T05:55:39;98922.06;;;-5.51;0.00
23318;BME280;11831;55.918;37.746;2023-02-18T05:58:07;98902.41;;;-5.26;0.00
23318;BME280;11831;55.918;37.746;2023-02-18T06:00:33;98905.69;;;-5.24;0.00
23318;BME280;11831;55.918;37.746;2023-02-18T06:02:59;98908.22;;;-4.95;0.00
23318;BME280;11831;55.918;37.746;2023-02-18T06:05:26;98910.63;;;-4.74;0.00
23318;BME280;11831;55.918;37.746;2023-02-18T06:07:53;98899.53;;;-5.33;0.00
23318;BME280;11831;55.918;37.746;2023-02-18T06:10:19;98880.19;;;-4.93;0.00
23318;BME280;11831;55.918;37.746;2023-02-18T06:12:45;98875.66;;;-5.28;0.00
23318;BME280;11831;55.918;37.746;2023-02-18T06:15:31;98871.84;;;-5.53;0.00
23318;BME280;11831;55.918;37.746;2023-02-18T06:17:57;98876.47;;;-5.27;0.00
23318;BME280;11831;55.918;37.746;2023-02-18T06:20:23;98875.72;;;-5.01;0.00
23318;BME280;11831;55.918;37.746;2023-02-18T06:22:50;98869.25;;;-5.43;0.00
23318;BME280;11831;55.918;37.746;2023-02-18T06:25:16;98859.13;;;-5.56;0.00
23318;BME280;11831;55.918;37.746;2023-02-18T06:27:43;98853.06;;;-5.37;0.00
23318;BME280;11831;55.918;37.746;2023-02-18T06:30:09;98866.78;;;-4.98;0.00
23318;BME280;11831;55.918;37.746;2023-02-18T06:32:36;98856.78;;;-5.03;0.00
23318;BME280;11831;55.918;37.746;2023-02-18T06:35:02;98838.31;;;-4.54;0.00
23318;BME280;11831;55.918;37.746;2023-02-18T06:37:29;98852.75;;;-4.87;0.00
23318;BME280;11831;55.918;37.746;2023-02-18T06:39:55;98845.25;;;-4.45;0.00
23318;BME280;11831;55.918;37.746;2023-02-18T06:42:22;98848.78;;;-5.28;0.00
23318;BME280;11831;55.918;37.746;2023-02-18T06:44:48;98849.06;;;-6.07;0.00
23318;BME280;11831;55.918;37.746;2023-02-18T06:47:15;98838.53;;;-5.03;0.00
23318;BME280;11831;55.918;37.746;2023-02-18T06:49:41;98836.59;;;-5.01;0.00
23318;BME280;11831;55.918;37.746;2023-02-18T06:52:26;98831.00;;;-4.33;0.00
23318;BME280;11831;55.918;37.746;2023-02-18T06:54:54;98841.44;;;-4.33;0.00
23318;BME280;11831;55.918;37.746;2023-02-18T06:57:39;98827.50;;;-4.87;0.00
23318;BME280;11831;55.918;37.746;2023-02-18T07:00:06;98821.69;;;-4.81;0.00
23318;BME280;11831;55.918;37.746;2023-02-18T07:02:32;98800.94;;;-4.55;0.00
23318;BME280;11831;55.918;37.746;2023-02-18T07:04:59;98815.59;;;-4.72;0.00
23318;BME280;11831;55.918;37.746;2023-02-18T07:07:25;98816.62;;;-4.82;0.00
23318;BME280;11831;55.918;37.746;2023-02-18T07:09:51;98807.13;;;-4.38;0.00
23318;BME280;11831;55.918;37.746;2023-02-18T07:12:18;98793.47;;;-4.68;0.00
23318;BME280;11831;55.918;37.746;2023-02-18T07:14:44;98800.28;;;-4.39;0.00
23318;BME280;11831;55.918;37.746;2023-02-18T07:17:11;98798.94;;;-4.43;0.00
23318;BME280;11831;55.918;37.746;2023-02-18T07:19:56;98784.66;;;-4.66;0.00
23318;BME280;11831;55.918;37.746;2023-02-18T07:22:22;98787.16;;;-4.92;0.00
23318;BME280;11831;55.918;37.746;2023-02-18T07:24:52;98782.28;;;-4.60;0.00
23318;BME280;11831;55.918;37.746;2023-02-18T07:27:37;98782.66;;;-5.00;0.00
23318;BME280;11831;55.918;37.746;2023-02-18T07:30:04;98773.44;;;-4.31;0.00
23318;BME280;11831;55.918;37.746;2023-02-18T07:32:31;98758.63;;;-3.61;0.00
23318;BME280;11831;55.918;37.746;2023-02-18T07:34:57;98760.59;;;-4.07;0.00
23318;BME280;11831;55.918;37.746;2023-02-18T07:37:23;98755.41;;;-4.43;0.00
23318;BME280;11831;55.918;37.746;2023-02-18T07:39:50;98751.56;;;-4.30;0.00
23318;BME280;11831;55.918;37.746;2023-02-18T07:42:16;98749.78;;;-4.12;0.00
23318;BME280;11831;55.918;37.746;2023-02-18T07:44:43;98758.16;;;-3.57;0.00
23318;BME280;11831;55.918;37.746;2023-02-18T07:50:33;98734.13;;;-3.60;0.00
23318;BME280;11831;55.918;37.746;2023-02-18T07:53:04;98722.41;;;-3.82;0.00
23318;BME280;11831;55.918;37.746;2023-02-18T07:55:31;98738.38;;;-3.85;0.00
23318;BME280;11831;55.918;37.746;2023-02-18T07:58:16;98733.75;;;-4.17;0.00
23318;BME280;11831;55.918;37.746;2023-02-18T08:00:43;98731.03;;;-4.51;0.00
23318;BME280;11831;55.918;37.746;2023-02-18T08:03:10;98710.63;;;-4.30;0.00
23318;BME280;11831;55.918;37.746;2023-02-18T08:05:36;98711.78;;;-4.07;0.00
23318;BME280;11831;55.918;37.746;2023-02-18T08:08:03;98703.88;;;-4.41;0.00
23318;BME280;11831;55.918;37.746;2023-02-18T08:10:30;98689.97;;;-4.23;0.00
23318;BME280;11831;55.918;37.746;2023-02-18T08:12:57;98696.69;;;-4.21;0.00
23318;BME280;11831;55.918;37.746;2023-02-18T08:15:23;98695.88;;;-3.95;0.00
23318;BME280;11831;55.918;37.746;2023-02-18T08:23:39;98672.16;;;-3.76;0.00
23318;BME280;11831;55.918;37.746;2023-02-18T08:28:51;98680.66;;;-4.00;0.00
23318;BME280;11831;55.918;37.746;2023-02-18T08:31:23;98672.16;;;-4.02;0.00
23318;BME280;11831;55.918;37.746;2023-02-18T08:33:52;98657.56;;;-3.53;0.00
23318;BME280;11831;55.918;37.746;2023-02-18T08:36:19;98654.34;;;-3.38;0.00
23318;BME280;11831;55.918;37.746;2023-02-18T08:38:45;98667.56;;;-4.08;0.00
23318;BME280;11831;55.918;37.746;2023-02-18T08:41:12;98671.59;;;-3.62;0.00
23318;BME280;11831;55.918;37.746;2023-02-18T08:43:39;98653.03;;;-3.77;0.00
23318;BME280;11831;55.918;37.746;2023-02-18T08:46:06;98642.63;;;-3.34;0.00
23318;BME280;11831;55.918;37.746;2023-02-18T08:48:32;98657.53;;;-3.19;0.00
23318;BME280;11831;55.918;37.746;2023-02-18T08:54:02;98642.88;;;-3.88;0.00
23318;BME280;11831;55.918;37.746;2023-02-18T09:00:03;98643.63;;;-3.19;0.00
23318;BME280;11831;55.918;37.746;2023-02-18T09:02:31;98637.19;;;-3.41;0.00
23318;BME280;11831;55.918;37.746;2023-02-18T09:04:57;98624.09;;;-2.74;0.00
23318;BME280;11831;55.918;37.746;2023-02-18T09:07:24;98611.28;;;-3.10;0.00
23318;BME280;11831;55.918;37.746;2023-02-18T09:09:50;98618.50;;;-2.79;0.00
23318;BME280;11831;55.918;37.746;2023-02-18T09:12:16;98610.78;;;-3.14;0.00
23318;BME280;11831;55.918;37.746;2023-02-18T09:14:46;98603.78;;;-2.97;0.00
23318;BME280;11831;55.918;37.746;2023-02-18T09:17:13;98606.03;;;-3.10;0.00
23318;BME280;11831;55.918;37.746;2023-02-18T09:19:39;98594.31;;;-2.82;0.00
23318;BME280;11831;55.918;37.746;2023-02-18T09:22:06;98596.44;;;-2.44;0.00
23318;BME280;11831;55.918;37.746;2023-02-18T09:27:20;98586.91;;;-2.45;0.00
23318;BME280;11831;55.918;37.746;2023-02-18T09:30:06;98569.47;;;-2.94;0.00
23318;BME280;11831;55.918;37.746;2023-02-18T09:32:32;98566.47;;;-3.31;0.00
23318;BME280;11831;55.918;37.746;2023-02-18T09:34:59;98575.19;;;-2.66;0.00
23318;BME280;11831;55.918;37.746;2023-02-18T09:37:25;98568.06;;;-3.47;0.00
23318;BME280;11831;55.918;37.746;2023-02-18T09:39:52;98562.94;;;-2.02;0.00
23318;BME280;11831;55.918;37.746;2023-02-18T09:42:20;98569.56;;;-1.75;0.00
23318;BME280;11831;55.918;37.746;2023-02-18T09:44:54;98569.38;;;-2.12;0.00
23318;BME280;11831;55.918;37.746;2023-02-18T09:50:05;98540.44;;;-2.35;0.00
23318;BME280;11831;55.918;37.746;2023-02-18T09:55:34;98545.19;;;-2.31;0.00
23318;BME280;11831;55.918;37.746;2023-02-18T09:58:25;98524.47;;;-2.01;0.00
23318;BME280;11831;55.918;37.746;2023-02-18T10:01:03;98548.25;;;-2.19;0.00
23318;BME280;11831;55.918;37.746;2023-02-18T10:03:31;98533.31;;;-2.74;0.00
23318;BME280;11831;55.918;37.746;2023-02-18T10:06:02;98522.53;;;-2.87;0.00
23318;BME280;11831;55.918;37.746;2023-02-18T10:08:33;98521.63;;;-1.83;0.00
23318;BME280;11831;55.918;37.746;2023-02-18T10:11:00;98494.78;;;-2.33;0.00
23318;BME280;11831;55.918;37.746;2023-02-18T10:13:32;98494.00;;;-2.02;0.00
23318;BME280;11831;55.918;37.746;2023-02-18T10:15:59;98517.72;;;-2.51;0.00
23318;BME280;11831;55.918;37.746;2023-02-18T10:18:34;98474.41;;;-2.14;0.00
23318;BME280;11831;55.918;37.746;2023-02-18T10:21:14;98501.41;;;-1.21;0.00
23318;BME280;11831;55.918;37.746;2023-02-18T10:24:58;98486.22;;;-1.11;0.00
23318;BME280;11831;55.918;37.746;2023-02-18T10:27:31;98471.69;;;-2.29;0.00
23318;BME280;11831;55.918;37.746;2023-02-18T10:30:11;98447.78;;;-1.64;0.00
23318;BME280;11831;55.918;37.746;2023-02-18T10:32:44;98458.91;;;-2.24;0.00
23318;BME280;11831;55.918;37.746;2023-02-18T10:41:00;98435.84;;;-1.44;0.00
23318;BME280;11831;55.918;37.746;2023-02-18T10:46:12;98426.25;;;-1.51;0.00
23318;BME280;11831;55.918;37.746;2023-02-18T10:52:04;98436.72;;;-0.91;0.00
23318;BME280;11831;55.918;37.746;2023-02-18T10:57:22;98427.97;;;-1.06;0.00
23318;BME280;11831;55.918;37.746;2023-02-18T11:00:22;98420.47;;;-0.95;0.00
23318;BME280;11831;55.918;37.746;2023-02-18T11:05:35;98417.03;;;-0.36;0.00
23318;BME280;11831;55.918;37.746;2023-02-18T11:08:07;98408.66;;;-0.76;0.00
23318;BME280;11831;55.918;37.746;2023-02-18T11:10:38;98394.88;;;-1.45;0.00
23318;BME280;11831;55.918;37.746;2023-02-18T11:13:07;98414.59;;;-0.97;0.00
23318;BME280;11831;55.918;37.746;2023-02-18T11:15:54;98407.94;;;-0.84;0.00
23318;BME280;11831;55.918;37.746;2023-02-18T11:23:51;98397.94;;;-1.18;0.00
23318;BME280;11831;55.918;37.746;2023-02-18T11:29:17;98385.63;;;-1.78;0.00
23318;BME280;11831;55.918;37.746;2023-02-18T11:31:46;98384.47;;;-1.01;0.00
23318;BME280;11831;55.918;37.746;2023-02-18T11:34:18;98371.44;;;-1.09;0.00
23318;BME280;11831;55.918;37.746;2023-02-18T11:36:46;98390.75;;;-1.25;0.00
23318;BME280;11831;55.918;37.746;2023-02-18T11:44:27;98356.47;;;-2.29;0.00
23318;BME280;11831;55.918;37.746;2023-02-18T11:49:41;98345.34;;;-2.62;0.00
23318;BME280;11831;55.918;37.746;2023-02-18T11:52:41;98361.63;;;-1.90;0.00
23318;BME280;11831;55.918;37.746;2023-02-18T11:55:15;98343.78;;;-1.49;0.00
23318;BME280;11831;55.918;37.746;2023-02-18T11:58:03;98334.50;;;-0.63;0.00
23318;BME280;11831;55.918;37.746;2023-02-18T12:01:09;98345.44;;;-0.09;0.00
23318;BME280;11831;55.918;37.746;2023-02-18T12:06:50;98336.25;;;-0.34;0.00
23318;BME280;11831;55.918;37.746;2023-02-18T12:09:30;98329.31;;;0.65;0.00
23318;BME280;11831;55.918;37.746;2023-02-18T12:12:04;98325.22;;;-0.08;0.00
23318;BME280;11831;55.918;37.746;2023-02-18T12:14:31;98307.84;;;0.34;0.00
23318;BME280;11831;55.918;37.746;2023-02-18T12:20:06;98306.84;;;-0.44;0.00
23318;BME280;11831;55.918;37.746;2023-02-18T12:22:42;98308.56;;;1.18;0.00
23318;BME280;11831;55.918;37.746;2023-02-18T12:29:02;98319.00;;;2.07;0.00
23318;BME280;11831;55.918;37.746;2023-02-18T12:36:52;98308.00;;;5.23;0.00
23318;BME280;11831;55.918;37.746;2023-02-18T12:39:55;98294.25;;;4.46;0.00
23318;BME280;11831;55.918;37.746;2023-02-18T12:48:45;98289.03;;;4.83;0.00
23318;BME280;11831;55.918;37.746;2023-02-18T13:05:37;98256.50;;;3.76;0.00
23318;BME280;11831;55.918;37.746;2023-02-18T13:08:22;98227.06;;;2.63;0.00
23318;BME280;11831;55.918;37.746;2023-02-18T13:11:09;98269.59;;;3.58;0.00
23318;BME280;11831;55.918;37.746;2023-02-18T13:13:41;98276.56;;;2.88;0.00
23318;BME280;11831;55.918;37.746;2023-02-18T13:16:15;98264.84;;;2.57;0.00
23318;BME280;11831;55.918;37.746;2023-02-18T13:18:46;98236.84;;;2.43;0.00
23318;BME280;11831;55.918;37.746;2023-02-18T13:21:15;98234.81;;;0.36;0.00
23318;BME280;11831;55.918;37.746;2023-02-18T13:24:02;98242.31;;;0.11;0.00
23318;BME280;11831;55.918;37.746;2023-02-18T13:26:32;98233.78;;;-0.19;0.00
23318;BME280;11831;55.918;37.746;2023-02-18T13:29:33;98220.78;;;-1.00;0.00
23318;BME280;11831;55.918;37.746;2023-02-18T13:32:19;98240.78;;;-0.99;0.00
23318;BME280;11831;55.918;37.746;2023-02-18T13:34:56;98218.97;;;-0.99;0.00
23318;BME280;11831;55.918;37.746;2023-02-18T13:37:50;98226.69;;;-1.71;0.00
23318;BME280;11831;55.918;37.746;2023-02-18T13:40:26;98165.13;;;-2.05;0.00
23318;BME280;11831;55.918;37.746;2023-02-18T13:43:18;98225.47;;;-1.98;0.00
23318;BME280;11831;55.918;37.746;2023-02-18T13:48:52;98224.53;;;-2.97;0.00
23318;BME280;11831;55.918;37.746;2023-02-18T13:51:29;98227.81;;;-2.49;0.00
23318;BME280;11831;55.918;37.746;2023-02-18T13:54:24;98225.53;;;-2.06;0.00
23318;BME280;11831;55.918;37.746;2023-02-18T13:57:04;98233.31;;;-2.13;0.00
23318;BME280;11831;55.918;37.746;2023-02-18T13:59:42;98233.69;;;-2.24;0.00
23318;BME280;11831;55.918;37.746;2023-02-18T14:17:51;98185.69;;;-2.85;0.00
23318;BME280;11831;55.918;37.746;2023-02-18T14:25:53;98194.31;;;-3.07;0.00
23318;BME280;11831;55.918;37.746;2023-02-18T14:33:41;98175.06;;;-2.38;0.00
23318;BME280;11831;55.918;37.746;2023-02-18T14:48:21;98173.34;;;-2.68;0.00
23318;BME280;11831;55.918;37.746;2023-02-18T14:50:51;98170.03;;;-2.62;0.00
23318;BME280;11831;55.918;37.746;2023-02-18T14:53:23;98168.84;;;-2.83;0.00
23318;BME280;11831;55.918;37.746;2023-02-18T14:55:58;98164.66;;;-2.46;0.00
23318;BME280;11831;55.918;37.746;2023-02-18T15:00:53;98159.13;;;-2.97;0.00
23318;BME280;11831;55.918;37.746;2023-02-18T15:03:20;98147.34;;;-2.93;0.00
23318;BME280;11831;55.918;37.746;2023-02-18T15:05:49;98164.66;;;-2.46;0.00
23318;BME280;11831;55.918;37.746;2023-02-18T15:08:22;98140.59;;;-2.64;0.00
23318;BME280;11831;55.918;37.746;2023-02-18T15:10:57;98118.19;;;-3.13;0.00
23318;BME280;11831;55.918;37.746;2023-02-18T15:13:26;98135.72;;;-2.67;0.00
23318;BME280;11831;55.918;37.746;2023-02-18T15:15:56;98148.56;;;-2.81;0.00
23318;BME280;11831;55.918;37.746;2023-02-18T15:18:33;98151.09;;;-3.18;0.00
23318;BME280;11831;55.918;37.746;2023-02-18T15:21:03;98123.25;;;-3.11;0.00
23318;BME280;11831;55.918;37.746;2023-02-18T15:23:33;98135.25;;;-3.56;0.00
23318;BME280;11831;55.918;37.746;2023-02-18T15:26:00;98104.69;;;-2.93;0.00
23318;BME280;11831;55.918;37.746;2023-02-18T15:28:29;98112.16;;;-2.90;0.00
23318;BME280;11831;55.918;37.746;2023-02-18T15:31:01;98123.50;;;-2.98;0.00
23318;BME280;11831;55.918;37.746;2023-02-18T15:33:29;98112.16;;;-3.13;0.00
23318;BME280;11831;55.918;37.746;2023-02-18T15:36:05;98105.59;;;-3.09;0.00
23318;BME280;11831;55.918;37.746;2023-02-18T15:38:32;98111.88;;;-3.18;0.00
23318;BME280;11831;55.918;37.746;2023-02-18T15:40:59;98124.53;;;-2.61;0.00
23318;BME280;11831;55.918;37.746;2023-02-18T15:43:26;98097.75;;;-3.09;0.00
23318;BME280;11831;55.918;37.746;2023-02-18T15:45:55;98105.66;;;-2.94;0.00
23318;BME280;11831;55.918;37.746;2023-02-18T15:48:28;98120.97;;;-3.14;0.00
23318;BME280;11831;55.918;37.746;2023-02-18T15:50:57;98105.50;;;-2.93;0.00
23318;BME280;11831;55.918;37.746;2023-02-18T15:53:26;98101.75;;;-3.21;0.00
23318;BME280;11831;55.918;37.746;2023-02-18T15:55:53;98110.34;;;-1.56;0.00
23318;BME280;11831;55.918;37.746;2023-02-18T15:58:29;98099.09;;;-0.56;0.00
23318;BME280;11831;55.918;37.746;2023-02-18T16:00:58;98094.03;;;-1.87;0.00
23318;BME280;11831;55.918;37.746;2023-02-18T16:03:27;98095.91;;;-2.40;0.00
23318;BME280;11831;55.918;37.746;2023-02-18T16:06:24;98093.56;;;-2.35;0.00
23318;BME280;11831;55.918;37.746;2023-02-18T16:08:59;98089.81;;;-2.55;0.00
23318;BME280;11831;55.918;37.746;2023-02-18T16:11:31;98083.22;;;-2.66;0.00
23318;BME280;11831;55.918;37.746;2023-02-18T16:14:00;98086.13;;;-2.84;0.00
23318;BME280;11831;55.918;37.746;2023-02-18T16:16:31;98076.75;;;-2.78;0.00
23318;BME280;11831;55.918;37.746;2023-02-18T16:18:59;98089.56;;;-3.06;0.00
23318;BME280;11831;55.918;37.746;2023-02-18T16:21:37;98093.59;;;-2.58;0.00
23318;BME280;11831;55.918;37.746;2023-02-18T16:24:26;98072.75;;;-2.89;0.00
23318;BME280;11831;55.918;37.746;2023-02-18T16:26:56;98075.84;;;-3.08;0.00
23318;BME280;11831;55.918;37.746;2023-02-18T16:29:34;98060.59;;;-2.82;0.00
23318;BME280;11831;55.918;37.746;2023-02-18T16:32:01;98064.78;;;-2.72;0.00
23318;BME280;11831;55.918;37.746;2023-02-18T16:34:28;98065.37;;;-3.08;0.00
23318;BME280;11831;55.918;37.746;2023-02-18T16:36:54;98064.09;;;-2.89;0.00
23318;BME280;11831;55.918;37.746;2023-02-18T16:39:39;98063.69;;;-3.24;0.00
23318;BME280;11831;55.918;37.746;2023-02-18T16:42:12;98071.44;;;-3.69;0.00
23318;BME280;11831;55.918;37.746;2023-02-18T16:44:39;98061.56;;;-3.20;0.00
23318;BME280;11831;55.918;37.746;2023-02-18T16:47:06;98041.28;;;-2.95;0.00
23318;BME280;11831;55.918;37.746;2023-02-18T16:49:34;98057.22;;;-3.59;0.00
23318;BME280;11831;55.918;37.746;2023-02-18T16:52:05;98061.38;;;-3.19;0.00
23318;BME280;11831;55.918;37.746;2023-02-18T16:54:32;98048.03;;;-3.01;0.00
23318;BME280;11831;55.918;37.746;2023-02-18T16:56:59;98047.75;;;-3.06;0.00